Other Surface Observations
Issued by NWS Missoula, MT

Home | Current Version | Previous Version | Text Only | Print | Product List | Glossary On
Versions: 1 2 3 4 5 6 7 8 9 10 11 12 13 14 15 16 17 18 19 20 21 22 23 24 25 26 27 28 29 30 31 32 33 34 35 36 37 38 39 40 41 42 43 44 45 46 47 48 49 50
073
SXUS55 KMSO 140804
OSOMSO
MONTANA AWOS SUMMARY
NATIONAL WEATHER SERVICE MISSOULA MT
103 AM MST SUN FEB 14 2016

Montana AWOS Reports

ROUNDUP     |KRPX 140755Z AUTO 00000KT 40SM 02/M08 A2983 RMK AO1 T00171082
EKALAKA     |K97M 140755Z AUTO 24010G15KT 40SM M01/M04 A2985 RMK AO1 T10101038
TWIN BRIDGES|K7S1 140755Z AUTO 12008KT 40SM 03/M06 A2999 RMK AO1 T00281060




USA.gov is the U.S. government's official web portal to all federal, state and local government web resources and services.